Fort Lauderdale Executive Airport Fort Lauderdale US
ICAO: KFXE
IATA: FXE
Category: Medium
Scheduled Services: No

Elevation: 13 ft
TransAlt. 18000 ft.

Airport Communications:
MIAMI APP/DEP:119.7
ATIS:119.85
CLNC DEL:127.95
EXECUTIVE GND:121.75
EXECUTIVE TWR:120.9
UNICOM:122.95

KFXE Zoom In..

Runways:

(A) RW 08 length 6002 ft width 100 ft
ILS 111.10 / hdg 87

(B) RW 13 length 4000 ft width 100 ft
---- / hdg 132

(C) RW 26 length 6002 ft width 100 ft
---- / hdg 267

(D) RW 31 length 4000 ft width 100 ft
---- / hdg 312

Location; KFXE
Day. 23 / Time. 09.53 Zulu
* Altimeter: 29.88
* Temperature: 27° c. 80.6°f.
* Wind from: 220° Speed 03 kn.
Dewpoint: 24° c.
Visibility: 10 Statute Miles.
Clouds: Clear (automated report).

KFXE 230953Z AUTO 22003KT 10SM CLR 27/24 A2988 RMK AO2 SLP121 T02670244


Wind From 220°
Speed 03 kn.

 
 
jpsmedia.com for Web Design worldairports.se 2018   terms of use